Time;durP1;ratioP1;P1;durP2;ratioP2;P2;SDS_P1;SDS_P2;PMS_P1;PMS_P2;Temp;Humidity;BMP_temperature;BMP_pressure;BME280_temperature;BME280_humidity;BME280_pressure;Samples;Min_cycle;Max_cycle;Signal;HPM_P1;HPM_P2
2022/01/27 00:03:17;;;;;;;33.13;10.85;;;;;;;2.36;97.29;101912.63;6073122;28;20377;-72
2022/01/27 00:06:14;;;;;;;37.83;10.48;;;;;;;2.38;97.93;101908.22;6070880;28;20033;-72
2022/01/27 00:09:45;;;;;;;32.00;9.82;;;;;;;2.42;97.40;101887.16;6077711;28;20496;-72
2022/01/27 00:12:25;;;;;;;31.48;9.63;;;;;;;2.42;97.57;101891.44;6075268;28;20381;-72
2022/01/27 00:15:28;;;;;;;27.73;10.43;;;;;;;2.42;97.01;101879.31;6075878;28;20139;-71
2022/01/27 00:18:23;;;;;;;24.08;9.55;;;;;;;2.42;96.91;101870.50;6075693;28;20071;-73
2022/01/27 00:21:21;;;;;;;27.43;9.10;;;;;;;2.46;96.64;101866.00;6073872;28;20404;-72
2022/01/27 00:24:17;;;;;;;27.20;9.32;;;;;;;2.48;96.65;101879.00;6077169;28;20038;-73
2022/01/27 00:27:12;;;;;;;25.45;8.85;;;;;;;2.55;96.26;101885.72;6075743;28;20044;-73
2022/01/27 00:30:09;;;;;;;25.40;8.57;;;;;;;2.50;95.93;101892.91;6075905;28;20055;-73
2022/01/27 00:33:04;;;;;;;20.58;7.03;;;;;;;2.57;95.98;101886.47;6065581;28;20110;-73
2022/01/27 00:36:00;;;;;;;27.08;7.88;;;;;;;2.57;96.00;101855.91;6076149;28;20060;-73
2022/01/27 00:38:55;;;;;;;20.50;7.73;;;;;;;2.63;95.59;101850.44;6076620;28;20037;-73
2022/01/27 00:41:50;;;;;;;25.33;8.47;;;;;;;2.67;94.94;101859.81;6073727;28;20099;-73
2022/01/27 00:44:46;;;;;;;20.87;8.40;;;;;;;2.68;95.29;101856.31;6075047;28;20033;-73
2022/01/27 00:47:41;;;;;;;19.30;7.03;;;;;;;2.72;94.14;101877.94;6076588;28;20025;-73
2022/01/27 00:50:38;;;;;;;20.87;7.10;;;;;;;2.74;94.39;101850.81;6072427;28;20025;-73
2022/01/27 00:56:39;;;;;;;17.73;7.33;;;;;;;2.73;93.20;101845.63;6064018;28;20034;-73
2022/01/27 01:12:16;;;;;;;24.73;8.02;;;;;;;2.80;92.58;101816.47;6075440;28;20037;-74
2022/01/27 01:15:14;;;;;;;22.77;7.85;;;;;;;2.79;93.43;101812.16;6071315;28;20468;-73
2022/01/27 01:18:32;;;;;;;17.48;6.70;;;;;;;2.81;92.99;101784.13;6073962;28;20544;-73
2022/01/27 01:22:14;;;;;;;19.23;7.90;;;;;;;2.79;92.33;101785.13;6067532;28;20033;-74
2022/01/27 01:31:16;;;;;;;20.20;8.18;;;;;;;2.80;92.83;101781.59;6073431;28;20439;-73
2022/01/27 01:37:10;;;;;;;22.02;8.23;;;;;;;2.82;92.66;101784.97;6074969;28;20041;-72
2022/01/27 01:40:13;;;;;;;21.30;7.00;;;;;;;2.85;92.23;101775.19;6073536;28;20417;-73
2022/01/27 01:43:08;;;;;;;25.23;8.13;;;;;;;2.85;92.05;101769.94;6074436;28;20060;-73
2022/01/27 01:46:04;;;;;;;23.40;8.38;;;;;;;2.80;92.01;101763.25;6074397;28;20033;-73
2022/01/27 01:48:59;;;;;;;27.20;8.33;;;;;;;2.81;91.73;101757.94;6074843;28;20056;-72
2022/01/27 01:51:56;;;;;;;21.30;7.60;;;;;;;2.82;92.39;101770.13;6072754;28;20384;-73
2022/01/27 01:54:54;;;;;;;20.25;7.38;;;;;;;2.81;92.06;101757.06;6074416;28;20464;-73
2022/01/27 01:57:50;;;;;;;21.67;8.60;;;;;;;2.83;92.75;101750.00;6074421;28;20040;-73
2022/01/27 02:00:46;;;;;;;17.00;7.50;;;;;;;2.78;92.95;101736.28;6073777;28;20037;-73
2022/01/27 02:03:41;;;;;;;18.80;8.10;;;;;;;2.82;92.88;101733.47;6073522;28;20033;-73
2022/01/27 02:06:44;;;;;;;23.83;8.15;;;;;;;2.80;92.23;101734.44;6067891;28;20057;-73
2022/01/27 02:19:09;;;;;;;17.42;6.50;;;;;;;2.79;92.72;101706.56;6068345;28;19999;-73
2022/01/27 02:22:05;;;;;;;18.35;7.22;;;;;;;2.78;92.89;101695.22;6060574;28;20041;-73
2022/01/27 02:25:00;;;;;;;20.88;6.75;;;;;;;2.81;92.13;101681.13;6074669;28;20033;-73
2022/01/27 02:27:56;;;;;;;20.85;8.02;;;;;;;2.80;92.42;101676.84;6073040;28;20041;-73
2022/01/27 02:30:52;;;;;;;20.45;7.53;;;;;;;2.81;92.14;101683.75;6072885;28;20045;-73
2022/01/27 02:33:55;;;;;;;22.00;8.33;;;;;;;2.80;92.54;101680.28;6073779;28;20049;-73
2022/01/27 02:36:51;;;;;;;24.85;8.93;;;;;;;2.79;92.17;101685.59;6069837;28;20040;-73
2022/01/27 02:39:47;;;;;;;27.13;9.65;;;;;;;2.81;92.07;101687.22;6072228;28;20060;-73
2022/01/27 02:42:42;;;;;;;24.63;8.30;;;;;;;2.80;91.85;101690.75;6069217;28;20037;-73
2022/01/27 02:45:45;;;;;;;24.77;8.93;;;;;;;2.83;91.75;101687.13;6066518;28;20033;-73
2022/01/27 02:48:41;;;;;;;25.70;9.55;;;;;;;2.84;91.50;101692.31;6073357;28;20044;-73
2022/01/27 02:51:37;;;;;;;32.10;11.50;;;;;;;2.82;91.79;101686.31;6070283;28;20030;-73
2022/01/27 02:54:32;;;;;;;30.80;11.13;;;;;;;2.82;91.36;101682.84;6072859;28;20463;-73
2022/01/27 02:57:27;;;;;;;34.45;10.88;;;;;;;2.82;91.55;101695.94;6073118;28;20048;-73
2022/01/27 03:00:23;;;;;;;31.20;10.73;;;;;;;2.82;91.30;101695.94;6073234;28;20044;-73
2022/01/27 03:03:18;;;;;;;30.50;11.57;;;;;;;2.84;90.95;101704.56;6070809;28;20034;-73
2022/01/27 03:06:13;;;;;;;33.40;13.30;;;;;;;2.84;90.73;101687.09;6060719;28;20284;-73
2022/01/27 03:09:09;;;;;;;34.13;12.05;;;;;;;2.80;90.65;101674.22;6072919;28;20351;-73
2022/01/27 03:12:07;;;;;;;38.10;12.97;;;;;;;2.81;91.38;101668.03;6072163;28;20396;-73
2022/01/27 03:15:03;;;;;;;32.28;11.82;;;;;;;2.82;90.65;101664.50;6072395;28;20290;-73
2022/01/27 03:17:58;;;;;;;36.00;14.10;;;;;;;2.81;90.45;101653.19;6073384;28;20082;-73
2022/01/27 03:20:54;;;;;;;38.03;13.87;;;;;;;2.82;90.23;101646.19;6071811;28;20052;-73
2022/01/27 03:23:49;;;;;;;38.73;13.50;;;;;;;2.82;90.45;101649.66;6073576;28;20048;-73
2022/01/27 03:26:46;;;;;;;40.50;13.77;;;;;;;2.86;89.86;101650.31;6072854;28;20045;-73
2022/01/27 03:29:42;;;;;;;36.20;12.75;;;;;;;2.88;89.33;101653.75;6073371;28;20048;-72
2022/01/27 03:32:37;;;;;;;41.43;16.20;;;;;;;2.89;89.91;101651.03;6070841;28;20045;-73
2022/01/27 03:35:32;;;;;;;48.40;13.10;;;;;;;2.85;89.35;101643.41;6071513;28;20029;-73
2022/01/27 03:38:27;;;;;;;45.70;15.30;;;;;;;2.86;88.82;101650.31;6073128;28;20064;-73
2022/01/27 03:41:23;;;;;;;45.90;15.27;;;;;;;2.85;88.73;101644.25;6071705;28;20108;-73
2022/01/27 03:44:19;;;;;;;44.65;16.55;;;;;;;2.84;88.99;101641.72;6072577;28;20369;-73
2022/01/27 03:47:15;;;;;;;51.25;17.20;;;;;;;2.85;88.56;101648.66;6073548;28;20038;-73
2022/01/27 03:50:10;;;;;;;44.13;15.10;;;;;;;2.84;87.83;101637.31;6070852;28;20045;-73
2022/01/27 03:53:05;;;;;;;46.77;16.33;;;;;;;2.83;88.80;101632.16;6071866;28;20075;-73
2022/01/27 03:56:01;;;;;;;44.30;16.40;;;;;;;2.82;87.75;101627.84;6067403;28;20056;-73
2022/01/27 03:58:57;;;;;;;47.03;16.10;;;;;;;2.85;87.76;101617.22;6070064;28;20060;-73
2022/01/27 04:01:53;;;;;;;45.10;15.83;;;;;;;2.84;87.28;101623.38;6070210;28;20490;-73
2022/01/27 04:04:48;;;;;;;42.88;14.07;;;;;;;2.88;86.91;101609.22;6073087;28;20440;-73
2022/01/27 04:07:44;;;;;;;51.30;16.50;;;;;;;2.86;86.97;101603.19;6072368;28;20061;-73
2022/01/27 04:10:39;;;;;;;41.77;15.80;;;;;;;2.83;86.29;101585.00;6070923;28;20075;-73
2022/01/27 04:13:36;;;;;;;45.50;15.68;;;;;;;2.85;86.48;101601.50;6070193;28;20128;-73
2022/01/27 04:16:31;;;;;;;54.72;17.35;;;;;;;2.83;85.70;101592.84;6074667;28;20044;-73
2022/01/27 04:19:26;;;;;;;47.40;15.70;;;;;;;2.81;86.61;101573.75;6077469;28;20060;-73
2022/01/27 04:22:21;;;;;;;45.17;15.30;;;;;;;2.80;86.37;101582.56;6062855;28;20047;-73
2022/01/27 04:25:17;;;;;;;36.97;14.40;;;;;;;2.76;86.16;101581.00;6076604;28;20036;-73
2022/01/27 04:28:16;;;;;;;50.83;17.80;;;;;;;2.73;86.67;101597.72;6069047;28;20030;-72
2022/01/27 04:31:12;;;;;;;47.95;15.95;;;;;;;2.71;86.09;101607.41;6074179;28;20033;-74
2022/01/27 04:34:07;;;;;;;43.47;14.70;;;;;;;2.76;86.13;101597.56;6076492;28;20029;-73
2022/01/27 04:37:03;;;;;;;41.80;14.45;;;;;;;2.76;86.15;101594.09;6076068;28;20041;-73
2022/01/27 04:40:13;;;;;;;40.35;15.38;;;;;;;2.72;86.73;101589.91;6072213;28;20034;-73
2022/01/27 04:43:23;;;;;;;42.70;14.68;;;;;;;2.70;86.76;101591.75;6067927;28;20385;-73
2022/01/27 04:46:44;;;;;;;37.90;14.20;;;;;;;2.71;86.29;101573.38;6076286;28;20489;-73
2022/01/27 04:49:40;;;;;;;42.13;14.88;;;;;;;2.67;85.57;101566.59;6076265;28;20455;-73
2022/01/27 04:52:40;;;;;;;51.10;15.43;;;;;;;2.66;86.16;101557.06;6076171;28;20030;-73
2022/01/27 04:55:35;;;;;;;37.10;14.07;;;;;;;2.68;85.63;101554.34;6075693;28;20128;-73
2022/01/27 04:58:33;;;;;;;38.63;15.53;;;;;;;2.65;85.82;101554.50;6065140;28;20392;-72
2022/01/27 05:01:40;;;;;;;45.85;16.08;;;;;;;2.63;86.36;101553.72;6068636;28;20448;-73
2022/01/27 05:04:41;;;;;;;47.58;16.15;;;;;;;2.64;85.58;101534.47;6065719;28;20128;-74
2022/01/27 05:07:38;;;;;;;40.40;15.52;;;;;;;2.59;85.16;101544.31;6073415;28;20033;-74
2022/01/27 05:10:34;;;;;;;55.50;16.75;;;;;;;2.53;85.94;101536.78;6074854;28;20033;-73
2022/01/27 05:13:37;;;;;;;44.20;15.32;;;;;;;2.51;86.31;101533.38;6065375;28;20067;-73
2022/01/27 05:16:33;;;;;;;47.50;16.67;;;;;;;2.49;85.92;101543.94;6078513;28;20030;-73
2022/01/27 05:19:28;;;;;;;42.28;15.57;;;;;;;2.46;86.17;101519.66;6052365;28;20033;-72
2022/01/27 05:22:23;;;;;;;42.30;15.23;;;;;;;2.47;85.97;101516.13;6062729;28;20037;-73
2022/01/27 05:25:19;;;;;;;41.53;15.67;;;;;;;2.47;86.13;101495.19;6076045;28;20103;-74
2022/01/27 05:28:14;;;;;;;42.67;14.50;;;;;;;2.46;86.34;101503.97;6075907;28;20034;-73
2022/01/27 05:31:09;;;;;;;43.93;16.00;;;;;;;2.44;85.86;101493.59;6074888;28;20033;-73
2022/01/27 05:34:05;;;;;;;35.73;13.60;;;;;;;2.44;85.65;101495.34;6074329;28;20026;-73
2022/01/27 05:37:01;;;;;;;45.50;15.23;;;;;;;2.44;85.93;101482.25;6075577;28;20295;-73
2022/01/27 05:39:56;;;;;;;46.90;15.30;;;;;;;2.42;86.67;101478.88;6073204;28;20041;-73
2022/01/27 05:42:51;;;;;;;38.33;13.73;;;;;;;2.44;86.26;101490.13;6072127;28;20265;-72
2022/01/27 05:45:47;;;;;;;40.67;14.37;;;;;;;2.44;85.68;101469.16;6060933;28;20054;-73
2022/01/27 05:48:42;;;;;;;43.60;14.97;;;;;;;2.46;86.44;101451.63;6068500;28;20034;-73
2022/01/27 05:51:37;;;;;;;36.85;14.18;;;;;;;2.46;85.67;101465.56;6071113;28;20034;-74
2022/01/27 05:54:34;;;;;;;40.27;14.00;;;;;;;2.51;85.95;101463.56;6065690;28;20041;-72
2022/01/27 05:57:29;;;;;;;36.78;13.27;;;;;;;2.52;85.78;101456.56;6073560;28;20034;-73
2022/01/27 06:00:24;;;;;;;53.00;15.63;;;;;;;2.51;85.76;101449.63;6072348;28;20033;-73
2022/01/27 06:03:20;;;;;;;44.53;13.87;;;;;;;2.50;85.58;101421.75;6071279;28;20037;-73
2022/01/27 06:06:15;;;;;;;34.43;12.67;;;;;;;2.52;85.33;101438.22;6060686;28;20036;-73
2022/01/27 06:09:11;;;;;;;47.27;14.90;;;;;;;2.51;85.89;101424.28;6056456;28;20048;-73
2022/01/27 06:12:06;;;;;;;42.15;13.98;;;;;;;2.53;86.13;101432.09;6056008;28;20382;-73
2022/01/27 06:15:02;;;;;;;37.08;13.65;;;;;;;2.54;85.59;101433.75;6074573;28;20038;-73
2022/01/27 06:17:58;;;;;;;39.25;14.05;;;;;;;2.52;85.39;101446.09;6069754;28;20033;-73
2022/01/27 06:20:59;;;;;;;41.30;13.63;;;;;;;2.51;85.80;101439.16;6072131;28;20467;-73
2022/01/27 06:23:55;;;;;;;39.30;12.98;;;;;;;2.54;86.05;101418.06;6060151;28;20127;-73
2022/01/27 06:26:50;;;;;;;38.77;15.63;;;;;;;2.56;86.41;101421.44;6062773;28;20030;-73
2022/01/27 06:29:45;;;;;;;41.05;13.85;;;;;;;2.55;86.66;101414.53;6064287;28;20038;-73
2022/01/27 06:32:41;;;;;;;37.07;14.60;;;;;;;2.53;87.17;101401.50;6070571;28;20091;-73
2022/01/27 06:35:37;;;;;;;39.72;13.90;;;;;;;2.51;86.96;101400.72;6069154;28;20141;-73
2022/01/27 06:38:32;;;;;;;40.88;14.32;;;;;;;2.35;88.40;101418.13;6071470;28;20049;-73
2022/01/27 06:41:27;;;;;;;45.53;15.97;;;;;;;2.25;89.57;101425.59;6060876;28;20044;-73
2022/01/27 06:44:23;;;;;;;45.50;14.10;;;;;;;2.20;90.26;101419.72;6074061;28;20040;-73
2022/01/27 06:47:18;;;;;;;49.40;15.40;;;;;;;2.17;90.29;101408.59;6071909;28;20124;-73
2022/01/27 06:50:13;;;;;;;48.47;15.70;;;;;;;2.16;90.55;101396.44;6072796;28;20037;-73
2022/01/27 06:53:09;;;;;;;42.60;15.45;;;;;;;2.17;90.92;101388.53;6073781;28;20029;-73
2022/01/27 06:56:04;;;;;;;47.67;15.40;;;;;;;2.17;91.02;101385.91;6071261;28;20041;-73
2022/01/27 06:59:00;;;;;;;48.60;14.15;;;;;;;2.21;90.64;101384.81;6073369;28;20041;-73
2022/01/27 07:01:55;;;;;;;41.97;14.90;;;;;;;2.26;89.69;101388.03;6068331;28;20045;-73
2022/01/27 07:04:51;;;;;;;40.85;14.65;;;;;;;2.34;89.65;101396.34;6071806;28;20033;-73
2022/01/27 07:07:46;;;;;;;43.17;13.02;;;;;;;2.39;89.12;101393.53;6070828;28;20025;-72
2022/01/27 07:10:41;;;;;;;37.73;13.87;;;;;;;2.46;88.89;101384.41;6068406;28;20037;-73
2022/01/27 07:13:40;;;;;;;41.37;13.73;;;;;;;2.48;88.81;101373.88;6062842;28;20045;-73
2022/01/27 07:16:35;;;;;;;48.63;15.65;;;;;;;2.49;89.37;101380.81;6061863;28;20422;-74
2022/01/27 07:19:31;;;;;;;45.17;15.00;;;;;;;2.49;88.93;101384.28;6068545;28;20030;-73
2022/01/27 07:22:26;;;;;;;44.20;14.13;;;;;;;2.46;89.78;101383.56;6072988;28;20276;-73
2022/01/27 07:25:21;;;;;;;47.20;13.63;;;;;;;2.46;90.01;101373.97;6072177;28;20108;-73
2022/01/27 07:28:17;;;;;;;48.20;15.03;;;;;;;2.42;90.67;101370.63;6071919;28;20515;-73
2022/01/27 07:31:12;;;;;;;47.93;15.53;;;;;;;2.40;90.69;101369.03;6060075;28;20048;-73
2022/01/27 07:34:07;;;;;;;34.27;12.60;;;;;;;2.40;91.70;101363.78;6072938;28;20040;-73
2022/01/27 07:37:03;;;;;;;44.43;14.33;;;;;;;2.40;91.52;101354.19;6068956;28;20032;-73
2022/01/27 07:39:58;;;;;;;38.35;14.23;;;;;;;2.38;91.05;101361.28;6071932;28;20748;-73
2022/01/27 07:42:53;;;;;;;41.43;13.97;;;;;;;2.35;91.79;101344.88;6071731;28;20056;-73
2022/01/27 07:45:51;;;;;;;40.33;12.43;;;;;;;2.34;92.08;101328.31;6072188;28;20384;-73
2022/01/27 07:48:47;;;;;;;43.78;13.57;;;;;;;2.32;91.97;101335.41;6073503;28;20045;-72
2022/01/27 07:51:43;;;;;;;49.17;14.98;;;;;;;2.28;92.95;101333.84;6075008;28;20049;-73
2022/01/27 07:54:38;;;;;;;44.50;13.57;;;;;;;2.31;92.26;101331.09;6076729;28;20064;-72
2022/01/27 07:57:33;;;;;;;39.73;13.53;;;;;;;2.31;92.61;101323.25;6073260;28;20473;-73
2022/01/27 08:00:29;;;;;;;40.47;12.00;;;;;;;2.32;92.19;101319.72;6076190;28;20425;-73
2022/01/27 08:03:24;;;;;;;51.27;14.70;;;;;;;2.34;92.93;101320.47;6082429;28;20308;-73
2022/01/27 08:06:20;;;;;;;40.08;13.48;;;;;;;2.36;92.79;101312.56;6088978;28;20415;-73
2022/01/27 08:09:15;;;;;;;44.30;14.43;;;;;;;2.44;92.59;101307.78;6086052;28;20030;-73
2022/01/27 08:12:10;;;;;;;44.00;14.87;;;;;;;2.49;92.05;101299.66;6078624;28;20500;-73
2022/01/27 08:15:06;;;;;;;34.90;13.20;;;;;;;2.55;91.75;101297.59;6077374;28;20549;-73
2022/01/27 08:18:03;;;;;;;35.85;12.73;;;;;;;2.64;91.80;101299.69;6071295;28;20318;-72
2022/01/27 08:20:58;;;;;;;46.20;15.18;;;;;;;2.63;91.28;101294.56;6080740;28;20492;-73
2022/01/27 08:23:55;;;;;;;41.40;14.33;;;;;;;2.65;92.25;101300.56;6083751;28;20128;-73
2022/01/27 08:26:57;;;;;;;36.22;13.52;;;;;;;2.67;92.02;101298.69;6073018;28;20075;-72
2022/01/27 08:29:58;;;;;;;35.00;12.73;;;;;;;2.69;92.26;101313.38;6076873;28;20099;-72
2022/01/27 08:32:59;;;;;;;40.35;13.57;;;;;;;2.69;92.61;101305.53;6079689;28;20042;-72
2022/01/27 08:35:54;;;;;;;49.42;15.07;;;;;;;2.69;93.00;101302.09;6076961;28;20034;-73
2022/01/27 08:38:50;;;;;;;46.10;14.95;;;;;;;2.73;93.23;101287.91;6075847;28;20080;-73
2022/01/27 08:41:46;;;;;;;38.97;13.82;;;;;;;2.73;93.51;101286.13;6083551;28;20053;-73
2022/01/27 08:44:41;;;;;;;47.37;13.20;;;;;;;2.73;94.00;101277.41;6063563;28;20061;-73
2022/01/27 08:47:37;;;;;;;42.45;13.65;;;;;;;2.75;94.00;101280.78;6072370;28;20033;-74
2022/01/27 08:50:32;;;;;;;46.90;13.90;;;;;;;2.83;93.90;101283.84;6075779;28;20435;-73
2022/01/27 08:53:29;;;;;;;34.78;11.98;;;;;;;2.90;93.94;101259.03;6076320;28;20053;-73
2022/01/27 08:56:24;;;;;;;36.83;12.48;;;;;;;2.94;94.02;101271.88;6073131;28;20429;-73
2022/01/27 08:59:20;;;;;;;34.67;12.47;;;;;;;3.04;92.92;101274.84;6070662;28;20034;-74
2022/01/27 09:02:16;;;;;;;28.10;10.80;;;;;;;3.08;93.00;101267.63;6075098;28;20029;-74
2022/01/27 09:05:11;;;;;;;29.87;10.77;;;;;;;3.14;93.08;101277.78;6075608;28;20391;-74
2022/01/27 09:08:06;;;;;;;30.43;11.00;;;;;;;3.17;93.08;101264.53;6071236;28;20030;-74
2022/01/27 09:11:01;;;;;;;30.27;11.87;;;;;;;3.16;93.36;101265.44;6073457;28;20037;-74
2022/01/27 09:13:58;;;;;;;28.23;10.30;;;;;;;3.20;93.17;101252.09;6066519;28;20021;-73
2022/01/27 09:16:53;;;;;;;36.85;12.40;;;;;;;3.19;94.15;101266.13;6074304;28;20079;-73
2022/01/27 09:19:49;;;;;;;32.42;10.68;;;;;;;3.14;94.40;101252.44;6068602;28;20030;-73
2022/01/27 09:22:44;;;;;;;35.53;11.33;;;;;;;3.10;95.21;101250.09;6055935;28;20526;-73
2022/01/27 09:25:46;;;;;;;31.95;11.13;;;;;;;3.12;95.12;101251.69;6075392;28;20026;-72
2022/01/27 09:28:41;;;;;;;29.42;10.13;;;;;;;3.11;94.85;101236.88;6075397;28;20037;-73
2022/01/27 09:31:37;;;;;;;29.47;10.57;;;;;;;3.09;95.24;101251.84;6075063;28;20046;-73
2022/01/27 09:34:32;;;;;;;28.77;10.13;;;;;;;3.15;95.65;101243.66;6075613;28;20490;-70
2022/01/27 09:37:27;;;;;;;29.15;10.98;;;;;;;3.18;96.21;101251.31;6072106;28;20415;-73
2022/01/27 09:40:24;;;;;;;32.50;11.10;;;;;;;3.18;96.16;101253.94;6058230;28;20477;-73
2022/01/27 09:43:20;;;;;;;31.70;11.07;;;;;;;3.19;96.67;101246.94;6061916;28;20467;-72
2022/01/27 09:46:18;;;;;;;29.05;10.32;;;;;;;3.19;96.17;101247.78;6084940;28;20535;-72
2022/01/27 09:49:17;;;;;;;25.98;10.55;;;;;;;3.23;96.50;101251.94;6067621;28;20106;-72
2022/01/27 09:52:13;;;;;;;26.00;9.30;;;;;;;3.26;96.44;101241.25;6074584;28;20057;-72
2022/01/27 09:55:08;;;;;;;28.20;10.17;;;;;;;3.30;96.62;101248.03;6073441;28;20066;-72
2022/01/27 09:58:05;;;;;;;27.02;9.55;;;;;;;3.28;96.67;101239.41;6069510;28;20029;-71
2022/01/27 10:01:00;;;;;;;26.98;9.52;;;;;;;3.32;96.96;101240.06;6065916;28;20038;-71
2022/01/27 10:03:58;;;;;;;26.27;8.03;;;;;;;3.34;97.14;101241.66;6069429;28;20071;-72
2022/01/27 10:06:57;;;;;;;20.25;7.78;;;;;;;3.38;96.56;101231.84;6074479;28;20436;-71
2022/01/27 10:10:10;;;;;;;18.92;7.20;;;;;;;3.39;96.83;101233.56;6074145;28;20493;-72
2022/01/27 10:13:08;;;;;;;18.63;7.20;;;;;;;3.44;96.99;101234.13;6073792;28;20116;-71
2022/01/27 10:16:03;;;;;;;18.88;8.00;;;;;;;3.45;96.76;101231.41;6074411;28;20588;-71
2022/01/27 10:19:09;;;;;;;21.63;7.10;;;;;;;3.50;97.16;101228.53;6074197;28;20045;-72
2022/01/27 10:22:09;;;;;;;17.20;6.82;;;;;;;3.48;97.26;101214.66;6073592;28;20420;-72
2022/01/27 10:25:12;;;;;;;22.48;6.90;;;;;;;3.49;96.62;101219.81;6072586;28;20546;-71
2022/01/27 10:28:28;;;;;;;16.92;6.55;;;;;;;3.57;96.89;101216.75;6056436;28;20038;-72
2022/01/27 10:31:25;;;;;;;15.52;6.75;;;;;;;3.58;96.76;101218.47;6061525;28;20033;-72
2022/01/27 10:34:20;;;;;;;16.95;6.57;;;;;;;3.60;97.26;101209.56;6072456;28;20068;-71
2022/01/27 10:37:15;;;;;;;17.00;6.47;;;;;;;3.61;97.14;101216.47;6070197;28;20397;-71
2022/01/27 10:40:20;;;;;;;15.17;6.80;;;;;;;3.65;97.46;101211.91;6064826;28;20029;-71
2022/01/27 10:43:23;;;;;;;14.05;5.50;;;;;;;3.70;96.72;101216.88;6071970;28;20030;-71
2022/01/27 10:46:26;;;;;;;13.55;5.32;;;;;;;3.71;96.49;101215.94;6068199;28;20037;-71
2022/01/27 10:49:28;;;;;;;13.60;4.80;;;;;;;3.77;97.58;101210.34;6065712;28;20504;-71
2022/01/27 10:52:34;;;;;;;26.30;6.90;;;;;;;3.76;96.83;101217.38;6071082;28;20091;-70
2022/01/27 10:55:29;;;;;;;15.10;5.72;;;;;;;3.83;96.91;101215.25;6062841;28;20509;-71
2022/01/27 10:58:26;;;;;;;13.97;4.93;;;;;;;3.84;96.76;101206.41;6064025;28;20040;-72
2022/01/27 11:01:30;;;;;;;11.32;5.00;;;;;;;3.87;96.29;101198.38;6065933;28;20348;-71
2022/01/27 11:04:33;;;;;;;15.35;5.32;;;;;;;3.88;96.65;101190.44;6066420;28;20067;-71
2022/01/27 11:07:29;;;;;;;13.98;5.90;;;;;;;3.95;97.37;101207.47;6054216;28;20045;-70
2022/01/27 11:10:24;;;;;;;11.25;5.07;;;;;;;3.98;96.97;101188.94;6070121;28;20037;-70
2022/01/27 11:13:22;;;;;;;14.43;6.55;;;;;;;4.03;97.34;101180.78;6065598;28;20044;-71
2022/01/27 11:16:22;;;;;;;15.27;6.05;;;;;;;4.06;96.22;101191.09;6069462;28;20119;-70
2022/01/27 11:19:35;;;;;;;11.93;5.50;;;;;;;4.08;96.87;101189.19;6066892;28;20048;-71
2022/01/27 11:22:58;;;;;;;11.82;5.10;;;;;;;4.16;97.17;101192.19;6059609;28;20116;-71
2022/01/27 11:25:54;;;;;;;12.90;5.38;;;;;;;4.16;97.57;101190.44;6071242;28;20029;-71
2022/01/27 11:28:50;;;;;;;15.27;5.82;;;;;;;4.13;96.47;101182.75;6057459;28;20049;-71
2022/01/27 11:32:25;;;;;;;14.73;6.53;;;;;;;4.25;97.34;101188.19;6070607;28;20033;-71
2022/01/27 11:35:22;;;;;;;12.57;5.50;;;;;;;4.28;96.99;101194.09;6065731;28;20116;-70
2022/01/27 11:38:24;;;;;;;10.10;5.85;;;;;;;4.41;96.98;101196.78;6062908;28;20030;-71
2022/01/27 11:41:47;;;;;;;13.82;5.78;;;;;;;4.48;96.00;101185.00;6071535;28;20037;-71
2022/01/27 11:44:45;;;;;;;11.35;4.93;;;;;;;4.54;96.74;101172.31;6071524;28;20384;-71
2022/01/27 11:48:08;;;;;;;13.23;6.28;;;;;;;4.54;96.04;101174.09;6071770;28;20467;-71
2022/01/27 11:51:06;;;;;;;13.07;5.05;;;;;;;4.54;96.48;101174.94;6066211;28;20120;-71
2022/01/27 11:54:27;;;;;;;11.32;5.68;;;;;;;4.56;96.59;101170.44;6072076;28;20041;-71
2022/01/27 11:57:42;;;;;;;10.07;5.32;;;;;;;4.58;95.99;101168.56;6068994;28;20037;-71
2022/01/27 12:00:39;;;;;;;13.00;6.78;;;;;;;4.59;96.62;101170.22;6069703;28;20433;-70
2022/01/27 12:03:35;;;;;;;14.07;7.00;;;;;;;4.65;96.55;101171.63;6070707;28;20037;-71
2022/01/27 12:06:37;;;;;;;25.52;10.50;;;;;;;4.61;96.99;101163.13;6070325;28;20566;-70
2022/01/27 12:09:34;;;;;;;14.30;6.38;;;;;;;4.63;96.73;101166.47;6071598;28;20048;-71
2022/01/27 12:12:32;;;;;;;15.70;7.22;;;;;;;4.71;96.79;101166.00;6066259;28;20104;-70
2022/01/27 12:15:30;;;;;;;14.90;6.90;;;;;;;4.72;96.15;101160.66;6065410;28;20048;-71
2022/01/27 12:18:37;;;;;;;14.07;5.90;;;;;;;4.68;96.56;101159.16;6063187;28;20061;-70
2022/01/27 12:21:46;;;;;;;15.85;6.95;;;;;;;4.68;97.25;101158.31;6062932;28;20036;-70
2022/01/27 12:24:58;;;;;;;16.60;6.35;;;;;;;4.70;96.96;101156.44;6071458;28;20037;-71
2022/01/27 12:27:55;;;;;;;14.82;6.40;;;;;;;4.68;97.36;101148.66;6053709;28;20466;-70
2022/01/27 12:30:54;;;;;;;15.68;6.78;;;;;;;4.71;96.76;101145.81;6067276;28;20108;-70
2022/01/27 12:33:49;;;;;;;14.40;5.88;;;;;;;4.71;97.29;101137.94;6070414;28;20037;-71
2022/01/27 12:37:06;;;;;;;15.37;6.03;;;;;;;4.76;97.98;101135.84;6072967;28;20484;-70
2022/01/27 12:40:06;;;;;;;17.98;7.13;;;;;;;4.80;97.22;101134.75;6073862;28;20069;-70
2022/01/27 12:43:07;;;;;;;16.40;6.28;;;;;;;4.80;97.61;101126.00;6065613;28;20092;-70
2022/01/27 12:46:06;;;;;;;13.93;6.15;;;;;;;4.83;97.57;101120.56;6061609;28;20541;-70
2022/01/27 12:49:03;;;;;;;15.25;5.72;;;;;;;4.93;97.63;101126.03;6062039;28;20037;-71
2022/01/27 12:52:00;;;;;;;14.85;6.63;;;;;;;5.04;96.92;101100.75;6061246;28;20037;-71
2022/01/27 12:54:56;;;;;;;12.75;5.53;;;;;;;5.06;96.98;101100.63;6067029;28;20053;-71
2022/01/27 12:57:54;;;;;;;13.98;5.90;;;;;;;5.17;97.06;101095.50;6061748;28;20472;-71
2022/01/27 13:00:50;;;;;;;13.88;5.78;;;;;;;5.23;96.55;101092.47;6074828;28;20037;-70
2022/01/27 13:04:01;;;;;;;10.98;5.18;;;;;;;5.28;96.76;101085.13;6071450;28;20039;-70
2022/01/27 13:06:57;;;;;;;12.77;5.45;;;;;;;5.30;96.35;101096.38;6074550;28;20412;-71
2022/01/27 13:10:06;;;;;;;15.07;5.80;;;;;;;5.33;96.60;101093.53;6075051;28;20037;-71
2022/01/27 13:13:06;;;;;;;12.52;6.32;;;;;;;5.37;97.02;101100.28;6071948;28;20037;-70
2022/01/27 13:16:05;;;;;;;17.48;6.40;;;;;;;5.40;96.18;101100.94;6073603;28;20044;-71
2022/01/27 13:19:07;;;;;;;13.10;5.97;;;;;;;5.44;96.66;101080.50;6073595;28;20056;-70
2022/01/27 13:22:05;;;;;;;13.15;5.95;;;;;;;5.45;96.48;101078.72;6072080;28;20037;-70
2022/01/27 13:25:01;;;;;;;13.10;5.60;;;;;;;5.47;96.63;101082.09;6073199;28;20061;-70
2022/01/27 13:28:21;;;;;;;11.48;5.78;;;;;;;5.53;96.14;101074.63;6069460;28;20033;-70
2022/01/27 13:31:16;;;;;;;14.57;6.40;;;;;;;5.57;96.72;101073.47;6070130;28;20068;-71
2022/01/27 13:34:12;;;;;;;11.90;5.57;;;;;;;5.62;95.98;101071.38;6070342;28;20044;-70
2022/01/27 13:37:08;;;;;;;11.35;5.25;;;;;;;5.65;96.53;101065.06;6073765;28;20482;-71
2022/01/27 13:43:17;;;;;;;13.93;6.25;;;;;;;5.67;96.20;101060.53;6060153;28;20065;-71
2022/01/27 13:46:33;;;;;;;13.80;6.30;;;;;;;5.78;96.50;101064.09;6072592;28;20038;-72
2022/01/27 13:49:32;;;;;;;15.80;6.38;;;;;;;5.83;95.68;101056.72;6069835;28;20481;-72
2022/01/27 13:52:27;;;;;;;12.82;5.25;;;;;;;5.87;95.80;101068.75;6066214;28;20041;-72
2022/01/27 13:55:24;;;;;;;14.47;5.93;;;;;;;5.92;95.77;101057.91;6073199;28;20052;-72
2022/01/27 13:58:25;;;;;;;15.90;5.65;;;;;;;5.89;96.25;101051.06;6073401;28;20029;-71
2022/01/27 14:01:20;;;;;;;15.27;6.40;;;;;;;5.93;95.34;101056.94;6073056;28;20033;-71
2022/01/27 14:04:16;;;;;;;14.30;6.27;;;;;;;5.97;95.88;101058.44;6071318;28;20040;-71
2022/01/27 14:07:11;;;;;;;16.57;6.17;;;;;;;5.90;95.01;101052.75;6070511;28;20033;-72
2022/01/27 14:10:20;;;;;;;17.20;6.60;;;;;;;5.89;95.08;101051.06;6065323;28;20295;-71
2022/01/27 14:13:23;;;;;;;15.13;6.60;;;;;;;5.91;96.00;101054.44;6068457;28;20493;-71
2022/01/27 14:16:28;;;;;;;14.90;6.35;;;;;;;5.86;95.83;101056.56;6073189;28;20087;-71
2022/01/27 14:19:23;;;;;;;18.33;6.38;;;;;;;5.79;96.37;101044.72;6062923;28;20071;-71
2022/01/27 14:22:20;;;;;;;19.07;6.53;;;;;;;5.85;96.18;101051.38;6072576;28;20416;-71
2022/01/27 14:25:22;;;;;;;16.42;6.88;;;;;;;5.81;96.55;101050.75;6073149;28;20065;-71